sensor_id;sensor_type;location;lat;lon;timestamp;temperature;humidity
14031;DHT22;7090;49.436;8.490;2024-01-30T00:01:37;3.80;99.90
14031;DHT22;7090;49.436;8.490;2024-01-30T00:04:03;3.90;99.90
14031;DHT22;7090;49.436;8.490;2024-01-30T00:06:28;3.80;99.90
14031;DHT22;7090;49.436;8.490;2024-01-30T00:08:54;3.80;99.90
14031;DHT22;7090;49.436;8.490;2024-01-30T00:11:19;3.90;99.90
14031;DHT22;7090;49.436;8.490;2024-01-30T00:13:46;3.90;99.90
14031;DHT22;7090;49.436;8.490;2024-01-30T00:16:24;3.90;99.90
14031;DHT22;7090;49.436;8.490;2024-01-30T00:18:54;4.00;99.90
14031;DHT22;7090;49.436;8.490;2024-01-30T00:21:20;4.00;99.90
14031;DHT22;7090;49.436;8.490;2024-01-30T00:23:46;4.00;99.90
14031;DHT22;7090;49.436;8.490;2024-01-30T00:26:12;3.90;99.90
14031;DHT22;7090;49.436;8.490;2024-01-30T00:28:38;3.90;99.90
14031;DHT22;7090;49.436;8.490;2024-01-30T00:31:04;3.80;99.90
14031;DHT22;7090;49.436;8.490;2024-01-30T00:33:30;3.90;99.90
14031;DHT22;7090;49.436;8.490;2024-01-30T00:35:56;3.80;99.90
14031;DHT22;7090;49.436;8.490;2024-01-30T00:38:21;3.80;99.90
14031;DHT22;7090;49.436;8.490;2024-01-30T00:40:47;3.80;99.90
14031;DHT22;7090;49.436;8.490;2024-01-30T00:43:12;3.70;99.90
14031;DHT22;7090;49.436;8.490;2024-01-30T00:45:38;3.70;99.90
14031;DHT22;7090;49.436;8.490;2024-01-30T00:48:04;3.80;99.90
14031;DHT22;7090;49.436;8.490;2024-01-30T00:50:29;3.80;99.90
14031;DHT22;7090;49.436;8.490;2024-01-30T00:52:55;3.90;99.90
14031;DHT22;7090;49.436;8.490;2024-01-30T00:55:21;3.80;99.90
14031;DHT22;7090;49.436;8.490;2024-01-30T00:57:46;3.70;99.90
14031;DHT22;7090;49.436;8.490;2024-01-30T01:00:13;3.70;99.90
14031;DHT22;7090;49.436;8.490;2024-01-30T01:02:42;3.70;99.90
14031;DHT22;7090;49.436;8.490;2024-01-30T01:05:08;3.60;99.90
14031;DHT22;7090;49.436;8.490;2024-01-30T01:07:33;3.60;99.90
14031;DHT22;7090;49.436;8.490;2024-01-30T01:09:59;3.50;99.90
14031;DHT22;7090;49.436;8.490;2024-01-30T01:12:24;3.40;99.90
14031;DHT22;7090;49.436;8.490;2024-01-30T01:14:50;3.40;99.90
14031;DHT22;7090;49.436;8.490;2024-01-30T01:17:16;3.30;99.90
14031;DHT22;7090;49.436;8.490;2024-01-30T01:19:41;3.30;99.90
14031;DHT22;7090;49.436;8.490;2024-01-30T01:22:07;3.40;99.90
14031;DHT22;7090;49.436;8.490;2024-01-30T01:24:33;3.40;99.90
14031;DHT22;7090;49.436;8.490;2024-01-30T01:26:59;3.40;99.90
14031;DHT22;7090;49.436;8.490;2024-01-30T01:29:25;3.30;99.90
14031;DHT22;7090;49.436;8.490;2024-01-30T01:31:57;3.30;99.90
14031;DHT22;7090;49.436;8.490;2024-01-30T01:34:23;3.30;99.90
14031;DHT22;7090;49.436;8.490;2024-01-30T01:36:52;3.40;99.90
14031;DHT22;7090;49.436;8.490;2024-01-30T01:39:21;3.40;99.90
14031;DHT22;7090;49.436;8.490;2024-01-30T01:41:47;3.30;99.90
14031;DHT22;7090;49.436;8.490;2024-01-30T01:44:13;3.30;99.90
14031;DHT22;7090;49.436;8.490;2024-01-30T01:46:38;3.30;99.90
14031;DHT22;7090;49.436;8.490;2024-01-30T01:49:08;3.30;99.90
14031;DHT22;7090;49.436;8.490;2024-01-30T01:51:35;3.30;99.90
14031;DHT22;7090;49.436;8.490;2024-01-30T01:54:05;3.30;99.90
14031;DHT22;7090;49.436;8.490;2024-01-30T01:56:33;3.30;99.90
14031;DHT22;7090;49.436;8.490;2024-01-30T01:59:06;3.20;99.90
14031;DHT22;7090;49.436;8.490;2024-01-30T02:01:33;3.20;99.90
14031;DHT22;7090;49.436;8.490;2024-01-30T02:04:00;3.20;99.90
14031;DHT22;7090;49.436;8.490;2024-01-30T02:06:27;3.20;99.90
14031;DHT22;7090;49.436;8.490;2024-01-30T02:08:53;3.30;99.90
14031;DHT22;7090;49.436;8.490;2024-01-30T02:11:19;3.40;99.90
14031;DHT22;7090;49.436;8.490;2024-01-30T02:13:45;3.40;99.90
14031;DHT22;7090;49.436;8.490;2024-01-30T02:16:11;3.40;99.90
14031;DHT22;7090;49.436;8.490;2024-01-30T02:18:37;3.40;99.90
14031;DHT22;7090;49.436;8.490;2024-01-30T02:21:07;3.30;99.90
14031;DHT22;7090;49.436;8.490;2024-01-30T02:23:33;3.20;99.90
14031;DHT22;7090;49.436;8.490;2024-01-30T02:26:00;3.30;99.90
14031;DHT22;7090;49.436;8.490;2024-01-30T02:28:26;3.40;99.90
14031;DHT22;7090;49.436;8.490;2024-01-30T02:30:52;3.50;99.90
14031;DHT22;7090;49.436;8.490;2024-01-30T02:33:18;3.40;99.90
14031;DHT22;7090;49.436;8.490;2024-01-30T02:35:43;3.20;99.90
14031;DHT22;7090;49.436;8.490;2024-01-30T02:38:09;3.10;99.90
14031;DHT22;7090;49.436;8.490;2024-01-30T02:40:35;3.10;99.90
14031;DHT22;7090;49.436;8.490;2024-01-30T02:43:02;3.10;99.90
14031;DHT22;7090;49.436;8.490;2024-01-30T02:45:27;3.20;99.90
14031;DHT22;7090;49.436;8.490;2024-01-30T02:47:53;3.10;99.90
14031;DHT22;7090;49.436;8.490;2024-01-30T02:50:19;3.10;99.90
14031;DHT22;7090;49.436;8.490;2024-01-30T02:52:44;3.20;99.90
14031;DHT22;7090;49.436;8.490;2024-01-30T02:55:10;3.10;99.90
14031;DHT22;7090;49.436;8.490;2024-01-30T02:57:36;3.00;99.90
14031;DHT22;7090;49.436;8.490;2024-01-30T03:00:02;3.10;99.90
14031;DHT22;7090;49.436;8.490;2024-01-30T03:02:29;3.20;99.90
14031;DHT22;7090;49.436;8.490;2024-01-30T03:04:55;3.30;99.90
14031;DHT22;7090;49.436;8.490;2024-01-30T03:07:20;3.30;99.90
14031;DHT22;7090;49.436;8.490;2024-01-30T03:09:46;3.30;99.90
14031;DHT22;7090;49.436;8.490;2024-01-30T03:12:11;3.20;99.90
14031;DHT22;7090;49.436;8.490;2024-01-30T03:14:37;3.10;99.90
14031;DHT22;7090;49.436;8.490;2024-01-30T03:17:03;3.10;99.90
14031;DHT22;7090;49.436;8.490;2024-01-30T03:19:28;3.10;99.90
14031;DHT22;7090;49.436;8.490;2024-01-30T03:21:54;3.10;99.90
14031;DHT22;7090;49.436;8.490;2024-01-30T03:24:19;3.10;99.90
14031;DHT22;7090;49.436;8.490;2024-01-30T03:26:45;3.10;99.90
14031;DHT22;7090;49.436;8.490;2024-01-30T03:29:11;3.10;99.90
14031;DHT22;7090;49.436;8.490;2024-01-30T03:31:37;3.20;99.90
14031;DHT22;7090;49.436;8.490;2024-01-30T03:34:02;3.20;99.90
14031;DHT22;7090;49.436;8.490;2024-01-30T03:36:28;3.30;99.90
14031;DHT22;7090;49.436;8.490;2024-01-30T03:38:54;3.30;99.90
14031;DHT22;7090;49.436;8.490;2024-01-30T03:41:19;3.40;99.90
14031;DHT22;7090;49.436;8.490;2024-01-30T03:43:46;3.40;99.90
14031;DHT22;7090;49.436;8.490;2024-01-30T03:46:12;3.40;99.90
14031;DHT22;7090;49.436;8.490;2024-01-30T03:48:38;3.40;99.90
14031;DHT22;7090;49.436;8.490;2024-01-30T03:51:04;3.40;99.90
14031;DHT22;7090;49.436;8.490;2024-01-30T03:53:30;3.60;99.90
14031;DHT22;7090;49.436;8.490;2024-01-30T03:55:55;3.60;99.90
14031;DHT22;7090;49.436;8.490;2024-01-30T03:58:21;3.60;99.90
14031;DHT22;7090;49.436;8.490;2024-01-30T04:00:47;3.60;99.90
14031;DHT22;7090;49.436;8.490;2024-01-30T04:03:13;3.60;99.90
14031;DHT22;7090;49.436;8.490;2024-01-30T04:05:39;3.60;99.90
14031;DHT22;7090;49.436;8.490;2024-01-30T04:08:05;3.60;99.90
14031;DHT22;7090;49.436;8.490;2024-01-30T04:10:31;3.60;99.90
14031;DHT22;7090;49.436;8.490;2024-01-30T04:12:56;3.60;99.90
14031;DHT22;7090;49.436;8.490;2024-01-30T04:15:22;3.60;99.90
14031;DHT22;7090;49.436;8.490;2024-01-30T04:17:47;3.50;99.90
14031;DHT22;7090;49.436;8.490;2024-01-30T04:20:14;3.50;99.90
14031;DHT22;7090;49.436;8.490;2024-01-30T04:22:42;3.50;99.90
14031;DHT22;7090;49.436;8.490;2024-01-30T04:25:08;3.50;99.90
14031;DHT22;7090;49.436;8.490;2024-01-30T04:27:34;3.50;99.90
14031;DHT22;7090;49.436;8.490;2024-01-30T04:29:59;3.50;99.90
14031;DHT22;7090;49.436;8.490;2024-01-30T04:32:25;3.50;99.90
14031;DHT22;7090;49.436;8.490;2024-01-30T04:34:50;3.40;99.90
14031;DHT22;7090;49.436;8.490;2024-01-30T04:37:16;3.30;99.90
14031;DHT22;7090;49.436;8.490;2024-01-30T04:39:42;3.30;99.90
14031;DHT22;7090;49.436;8.490;2024-01-30T04:42:07;3.30;99.90
14031;DHT22;7090;49.436;8.490;2024-01-30T04:44:33;3.30;99.90
14031;DHT22;7090;49.436;8.490;2024-01-30T04:46:58;3.20;99.90
14031;DHT22;7090;49.436;8.490;2024-01-30T04:49:27;3.20;99.90
14031;DHT22;7090;49.436;8.490;2024-01-30T04:51:52;3.30;99.90
14031;DHT22;7090;49.436;8.490;2024-01-30T04:54:18;3.40;99.90
14031;DHT22;7090;49.436;8.490;2024-01-30T04:56:44;3.50;99.90
14031;DHT22;7090;49.436;8.490;2024-01-30T04:59:09;3.60;99.90
14031;DHT22;7090;49.436;8.490;2024-01-30T05:01:35;3.70;99.90
14031;DHT22;7090;49.436;8.490;2024-01-30T05:04:00;3.90;99.90
14031;DHT22;7090;49.436;8.490;2024-01-30T05:06:27;3.90;99.90
14031;DHT22;7090;49.436;8.490;2024-01-30T05:08:53;4.00;99.90
14031;DHT22;7090;49.436;8.490;2024-01-30T05:11:18;4.00;99.90
14031;DHT22;7090;49.436;8.490;2024-01-30T05:13:44;4.00;99.90
14031;DHT22;7090;49.436;8.490;2024-01-30T05:16:10;4.10;99.90
14031;DHT22;7090;49.436;8.490;2024-01-30T05:18:35;4.00;99.90
14031;DHT22;7090;49.436;8.490;2024-01-30T05:21:02;4.10;99.90
14031;DHT22;7090;49.436;8.490;2024-01-30T05:23:27;4.10;99.90
14031;DHT22;7090;49.436;8.490;2024-01-30T05:25:53;4.10;99.90
14031;DHT22;7090;49.436;8.490;2024-01-30T05:28:19;4.10;99.90
14031;DHT22;7090;49.436;8.490;2024-01-30T05:30:44;4.10;99.90
14031;DHT22;7090;49.436;8.490;2024-01-30T05:33:10;4.10;99.90
14031;DHT22;7090;49.436;8.490;2024-01-30T05:35:37;4.00;99.90
14031;DHT22;7090;49.436;8.490;2024-01-30T05:38:03;3.90;99.90
14031;DHT22;7090;49.436;8.490;2024-01-30T05:40:29;3.90;99.90
14031;DHT22;7090;49.436;8.490;2024-01-30T05:42:55;3.90;99.90
14031;DHT22;7090;49.436;8.490;2024-01-30T05:45:21;4.00;99.90
14031;DHT22;7090;49.436;8.490;2024-01-30T05:47:48;4.00;99.90
14031;DHT22;7090;49.436;8.490;2024-01-30T05:50:14;4.00;99.90
14031;DHT22;7090;49.436;8.490;2024-01-30T05:52:40;4.00;99.90
14031;DHT22;7090;49.436;8.490;2024-01-30T05:55:06;3.90;99.90
14031;DHT22;7090;49.436;8.490;2024-01-30T05:57:31;3.90;99.90
14031;DHT22;7090;49.436;8.490;2024-01-30T05:59:57;3.80;99.90
14031;DHT22;7090;49.436;8.490;2024-01-30T06:02:22;3.90;99.90
14031;DHT22;7090;49.436;8.490;2024-01-30T06:04:48;3.90;99.90
14031;DHT22;7090;49.436;8.490;2024-01-30T06:07:14;3.90;99.90
14031;DHT22;7090;49.436;8.490;2024-01-30T06:09:39;3.90;99.90
14031;DHT22;7090;49.436;8.490;2024-01-30T06:12:06;3.80;99.90
14031;DHT22;7090;49.436;8.490;2024-01-30T06:14:32;3.70;99.90
14031;DHT22;7090;49.436;8.490;2024-01-30T06:16:59;3.80;99.90
14031;DHT22;7090;49.436;8.490;2024-01-30T06:19:24;3.90;99.90
14031;DHT22;7090;49.436;8.490;2024-01-30T06:21:50;4.00;99.90
14031;DHT22;7090;49.436;8.490;2024-01-30T06:24:16;4.00;99.90
14031;DHT22;7090;49.436;8.490;2024-01-30T06:26:41;3.90;99.90
14031;DHT22;7090;49.436;8.490;2024-01-30T06:29:07;3.90;99.90
14031;DHT22;7090;49.436;8.490;2024-01-30T06:31:33;3.80;99.90
14031;DHT22;7090;49.436;8.490;2024-01-30T06:33:58;3.90;99.90
14031;DHT22;7090;49.436;8.490;2024-01-30T06:36:24;3.90;99.90
14031;DHT22;7090;49.436;8.490;2024-01-30T06:38:49;4.00;99.90
14031;DHT22;7090;49.436;8.490;2024-01-30T06:41:15;4.00;99.90
14031;DHT22;7090;49.436;8.490;2024-01-30T06:43:41;4.00;99.90
14031;DHT22;7090;49.436;8.490;2024-01-30T06:46:06;4.00;99.90
14031;DHT22;7090;49.436;8.490;2024-01-30T06:48:32;4.00;99.90
14031;DHT22;7090;49.436;8.490;2024-01-30T06:50:58;4.00;99.90
14031;DHT22;7090;49.436;8.490;2024-01-30T06:53:23;4.10;99.90
14031;DHT22;7090;49.436;8.490;2024-01-30T06:55:52;4.20;99.90
14031;DHT22;7090;49.436;8.490;2024-01-30T06:58:17;4.20;99.90
14031;DHT22;7090;49.436;8.490;2024-01-30T07:00:43;4.20;99.90
14031;DHT22;7090;49.436;8.490;2024-01-30T07:03:08;4.20;99.90
14031;DHT22;7090;49.436;8.490;2024-01-30T07:05:34;4.20;99.90
14031;DHT22;7090;49.436;8.490;2024-01-30T07:08:00;4.10;99.90
14031;DHT22;7090;49.436;8.490;2024-01-30T07:10:25;4.20;99.90
14031;DHT22;7090;49.436;8.490;2024-01-30T07:12:51;4.20;99.90
14031;DHT22;7090;49.436;8.490;2024-01-30T07:15:17;4.20;99.90
14031;DHT22;7090;49.436;8.490;2024-01-30T07:17:45;4.30;99.90
14031;DHT22;7090;49.436;8.490;2024-01-30T07:20:11;4.30;99.90
14031;DHT22;7090;49.436;8.490;2024-01-30T07:22:37;4.20;99.90
14031;DHT22;7090;49.436;8.490;2024-01-30T07:25:02;4.20;99.90
14031;DHT22;7090;49.436;8.490;2024-01-30T07:27:28;4.30;99.90
14031;DHT22;7090;49.436;8.490;2024-01-30T07:29:54;4.30;99.90
14031;DHT22;7090;49.436;8.490;2024-01-30T07:32:19;4.30;99.90
14031;DHT22;7090;49.436;8.490;2024-01-30T07:34:45;4.40;99.90
14031;DHT22;7090;49.436;8.490;2024-01-30T07:37:10;4.50;99.90
14031;DHT22;7090;49.436;8.490;2024-01-30T07:39:38;4.50;99.90
14031;DHT22;7090;49.436;8.490;2024-01-30T07:42:04;4.60;99.90
14031;DHT22;7090;49.436;8.490;2024-01-30T07:44:30;4.60;99.90
14031;DHT22;7090;49.436;8.490;2024-01-30T07:46:55;4.60;99.90
14031;DHT22;7090;49.436;8.490;2024-01-30T07:49:21;4.60;99.90
14031;DHT22;7090;49.436;8.490;2024-01-30T07:51:46;4.60;99.90
14031;DHT22;7090;49.436;8.490;2024-01-30T07:54:12;4.70;99.90
14031;DHT22;7090;49.436;8.490;2024-01-30T07:56:38;4.70;99.90
14031;DHT22;7090;49.436;8.490;2024-01-30T07:59:03;4.80;99.90
14031;DHT22;7090;49.436;8.490;2024-01-30T08:01:29;4.90;99.90
14031;DHT22;7090;49.436;8.490;2024-01-30T08:03:55;4.90;99.90
14031;DHT22;7090;49.436;8.490;2024-01-30T08:06:20;5.00;99.90
14031;DHT22;7090;49.436;8.490;2024-01-30T08:08:46;5.00;99.90
14031;DHT22;7090;49.436;8.490;2024-01-30T08:11:12;5.10;99.90
14031;DHT22;7090;49.436;8.490;2024-01-30T08:13:39;5.10;99.90
14031;DHT22;7090;49.436;8.490;2024-01-30T08:16:05;5.20;99.90
14031;DHT22;7090;49.436;8.490;2024-01-30T08:18:31;5.30;99.90
14031;DHT22;7090;49.436;8.490;2024-01-30T08:20:57;5.30;99.90
14031;DHT22;7090;49.436;8.490;2024-01-30T08:23:22;5.40;99.90
14031;DHT22;7090;49.436;8.490;2024-01-30T08:25:48;5.40;99.90
14031;DHT22;7090;49.436;8.490;2024-01-30T08:28:13;5.60;99.90
14031;DHT22;7090;49.436;8.490;2024-01-30T08:30:39;5.70;99.90
14031;DHT22;7090;49.436;8.490;2024-01-30T08:33:05;5.70;99.90
14031;DHT22;7090;49.436;8.490;2024-01-30T08:35:30;5.70;99.90
14031;DHT22;7090;49.436;8.490;2024-01-30T08:37:59;5.70;99.90
14031;DHT22;7090;49.436;8.490;2024-01-30T08:40:24;5.80;99.90
14031;DHT22;7090;49.436;8.490;2024-01-30T08:42:50;5.80;99.90
14031;DHT22;7090;49.436;8.490;2024-01-30T08:45:16;5.90;99.90
14031;DHT22;7090;49.436;8.490;2024-01-30T08:47:41;5.90;99.90
14031;DHT22;7090;49.436;8.490;2024-01-30T08:50:07;6.00;99.90
14031;DHT22;7090;49.436;8.490;2024-01-30T08:52:33;6.00;99.90
14031;DHT22;7090;49.436;8.490;2024-01-30T08:54:59;6.00;99.90
14031;DHT22;7090;49.436;8.490;2024-01-30T08:57:25;6.10;99.90
14031;DHT22;7090;49.436;8.490;2024-01-30T08:59:54;6.00;99.90
14031;DHT22;7090;49.436;8.490;2024-01-30T09:02:20;6.00;99.90
14031;DHT22;7090;49.436;8.490;2024-01-30T09:04:46;6.10;99.90
14031;DHT22;7090;49.436;8.490;2024-01-30T09:07:11;6.00;99.90
14031;DHT22;7090;49.436;8.490;2024-01-30T09:09:39;6.10;99.90
14031;DHT22;7090;49.436;8.490;2024-01-30T09:12:06;6.10;99.90
14031;DHT22;7090;49.436;8.490;2024-01-30T09:14:37;6.10;99.90
14031;DHT22;7090;49.436;8.490;2024-01-30T09:17:03;6.20;99.90
14031;DHT22;7090;49.436;8.490;2024-01-30T09:19:30;6.20;99.90
14031;DHT22;7090;49.436;8.490;2024-01-30T09:21:56;6.20;99.90
14031;DHT22;7090;49.436;8.490;2024-01-30T09:24:21;6.10;99.90
14031;DHT22;7090;49.436;8.490;2024-01-30T09:26:47;6.10;99.90
14031;DHT22;7090;49.436;8.490;2024-01-30T09:29:12;6.20;99.90
14031;DHT22;7090;49.436;8.490;2024-01-30T09:31:38;6.30;99.90
14031;DHT22;7090;49.436;8.490;2024-01-30T09:34:03;6.40;99.90
14031;DHT22;7090;49.436;8.490;2024-01-30T09:36:29;6.40;99.90
14031;DHT22;7090;49.436;8.490;2024-01-30T09:38:55;6.40;99.90
14031;DHT22;7090;49.436;8.490;2024-01-30T09:41:24;6.50;99.90
14031;DHT22;7090;49.436;8.490;2024-01-30T09:43:50;6.40;99.90
14031;DHT22;7090;49.436;8.490;2024-01-30T09:46:17;6.50;97.70
14031;DHT22;7090;49.436;8.490;2024-01-30T09:48:48;6.70;36.40
14031;DHT22;7090;49.436;8.490;2024-01-30T09:51:15;6.70;93.80
14031;DHT22;7090;49.436;8.490;2024-01-30T09:53:42;6.80;1.00
14031;DHT22;7090;49.436;8.490;2024-01-30T09:56:09;6.80;1.00
14031;DHT22;7090;49.436;8.490;2024-01-30T09:58:34;6.80;1.00
14031;DHT22;7090;49.436;8.490;2024-01-30T10:01:00;6.80;1.00
14031;DHT22;7090;49.436;8.490;2024-01-30T10:03:25;6.80;1.00
14031;DHT22;7090;49.436;8.490;2024-01-30T10:05:52;6.90;1.00
14031;DHT22;7090;49.436;8.490;2024-01-30T10:08:18;7.00;1.00
14031;DHT22;7090;49.436;8.490;2024-01-30T10:10:48;7.00;1.00
14031;DHT22;7090;49.436;8.490;2024-01-30T10:13:15;7.00;1.00
14031;DHT22;7090;49.436;8.490;2024-01-30T10:15:41;7.10;1.00
14031;DHT22;7090;49.436;8.490;2024-01-30T10:18:08;7.10;1.00
14031;DHT22;7090;49.436;8.490;2024-01-30T10:20:35;7.20;1.00
14031;DHT22;7090;49.436;8.490;2024-01-30T10:23:01;7.30;1.00
14031;DHT22;7090;49.436;8.490;2024-01-30T10:25:27;7.30;1.00
14031;DHT22;7090;49.436;8.490;2024-01-30T10:27:55;7.30;1.00
14031;DHT22;7090;49.436;8.490;2024-01-30T10:30:22;7.30;1.00
14031;DHT22;7090;49.436;8.490;2024-01-30T10:32:48;7.40;1.00
14031;DHT22;7090;49.436;8.490;2024-01-30T10:35:14;7.40;1.00
14031;DHT22;7090;49.436;8.490;2024-01-30T10:37:43;7.50;1.00
14031;DHT22;7090;49.436;8.490;2024-01-30T10:40:11;7.60;1.00
14031;DHT22;7090;49.436;8.490;2024-01-30T10:42:44;7.80;1.00
14031;DHT22;7090;49.436;8.490;2024-01-30T10:45:11;7.90;1.00
14031;DHT22;7090;49.436;8.490;2024-01-30T10:47:55;8.00;1.00
14031;DHT22;7090;49.436;8.490;2024-01-30T10:50:24;8.20;1.00
14031;DHT22;7090;49.436;8.490;2024-01-30T10:52:50;8.10;1.00
14031;DHT22;7090;49.436;8.490;2024-01-30T10:55:16;8.20;1.00
14031;DHT22;7090;49.436;8.490;2024-01-30T10:57:43;8.20;1.00
14031;DHT22;7090;49.436;8.490;2024-01-30T11:00:11;8.10;1.00
14031;DHT22;7090;49.436;8.490;2024-01-30T11:02:40;8.20;1.00
14031;DHT22;7090;49.436;8.490;2024-01-30T11:05:08;8.40;1.00
14031;DHT22;7090;49.436;8.490;2024-01-30T11:07:34;8.50;1.00
14031;DHT22;7090;49.436;8.490;2024-01-30T11:12:30;8.60;1.00
14031;DHT22;7090;49.436;8.490;2024-01-30T11:15:02;8.80;1.00
14031;DHT22;7090;49.436;8.490;2024-01-30T11:20:30;9.50;99.90
14031;DHT22;7090;49.436;8.490;2024-01-30T11:22:57;9.40;99.90
14031;DHT22;7090;49.436;8.490;2024-01-30T11:25:24;9.60;99.90
14031;DHT22;7090;49.436;8.490;2024-01-30T11:27:52;9.40;99.90
14031;DHT22;7090;49.436;8.490;2024-01-30T11:30:26;9.50;99.90
14031;DHT22;7090;49.436;8.490;2024-01-30T11:33:06;9.70;99.90
14031;DHT22;7090;49.436;8.490;2024-01-30T11:35:37;9.70;99.90
14031;DHT22;7090;49.436;8.490;2024-01-30T11:38:05;9.60;99.90
14031;DHT22;7090;49.436;8.490;2024-01-30T11:40:33;9.70;99.90
14031;DHT22;7090;49.436;8.490;2024-01-30T11:43:00;9.50;99.90
14031;DHT22;7090;49.436;8.490;2024-01-30T11:45:27;9.50;99.90
14031;DHT22;7090;49.436;8.490;2024-01-30T11:47:53;9.60;99.90
14031;DHT22;7090;49.436;8.490;2024-01-30T11:50:19;9.60;99.90
14031;DHT22;7090;49.436;8.490;2024-01-30T11:52:44;9.70;99.90
14031;DHT22;7090;49.436;8.490;2024-01-30T11:55:10;9.70;99.90
14031;DHT22;7090;49.436;8.490;2024-01-30T11:57:36;9.70;99.90
14031;DHT22;7090;49.436;8.490;2024-01-30T12:00:06;9.70;99.90
14031;DHT22;7090;49.436;8.490;2024-01-30T12:02:36;9.80;99.90
14031;DHT22;7090;49.436;8.490;2024-01-30T12:05:05;9.70;99.90
14031;DHT22;7090;49.436;8.490;2024-01-30T12:07:32;9.90;99.90
14031;DHT22;7090;49.436;8.490;2024-01-30T12:09:57;9.90;99.90
14031;DHT22;7090;49.436;8.490;2024-01-30T12:12:25;9.90;99.90
14031;DHT22;7090;49.436;8.490;2024-01-30T12:14:50;10.00;99.90
14031;DHT22;7090;49.436;8.490;2024-01-30T12:17:32;9.90;99.90
14031;DHT22;7090;49.436;8.490;2024-01-30T12:20:11;10.00;99.90
14031;DHT22;7090;49.436;8.490;2024-01-30T12:25:13;10.10;99.90
14031;DHT22;7090;49.436;8.490;2024-01-30T12:27:41;10.20;99.90
14031;DHT22;7090;49.436;8.490;2024-01-30T12:30:08;10.50;99.90
14031;DHT22;7090;49.436;8.490;2024-01-30T12:32:39;10.40;99.90
14031;DHT22;7090;49.436;8.490;2024-01-30T12:35:14;10.50;99.90
14031;DHT22;7090;49.436;8.490;2024-01-30T12:37:41;10.50;99.90
14031;DHT22;7090;49.436;8.490;2024-01-30T12:40:18;10.60;99.90
14031;DHT22;7090;49.436;8.490;2024-01-30T12:42:46;10.80;99.90
14031;DHT22;7090;49.436;8.490;2024-01-30T12:45:14;10.90;99.90
14031;DHT22;7090;49.436;8.490;2024-01-30T12:47:41;11.20;99.90
14031;DHT22;7090;49.436;8.490;2024-01-30T12:50:07;11.20;11.00
14031;DHT22;7090;49.436;8.490;2024-01-30T12:52:32;11.20;25.50
14031;DHT22;7090;49.436;8.490;2024-01-30T12:54:58;11.10;41.40
14031;DHT22;7090;49.436;8.490;2024-01-30T12:57:24;11.10;62.50
14031;DHT22;7090;49.436;8.490;2024-01-30T12:59:49;11.30;53.20
14031;DHT22;7090;49.436;8.490;2024-01-30T13:02:15;11.40;17.00
14031;DHT22;7090;49.436;8.490;2024-01-30T13:04:41;11.50;14.90
14031;DHT22;7090;49.436;8.490;2024-01-30T13:07:07;11.50;1.00
14031;DHT22;7090;49.436;8.490;2024-01-30T13:09:33;11.50;1.00
14031;DHT22;7090;49.436;8.490;2024-01-30T13:11:59;11.50;1.00
14031;DHT22;7090;49.436;8.490;2024-01-30T13:14:25;11.50;1.00
14031;DHT22;7090;49.436;8.490;2024-01-30T13:16:51;11.40;6.00
14031;DHT22;7090;49.436;8.490;2024-01-30T13:19:17;11.50;1.00
14031;DHT22;7090;49.436;8.490;2024-01-30T13:21:42;11.70;1.00
14031;DHT22;7090;49.436;8.490;2024-01-30T13:24:08;11.70;1.00
14031;DHT22;7090;49.436;8.490;2024-01-30T13:26:35;11.60;1.00
14031;DHT22;7090;49.436;8.490;2024-01-30T13:29:00;11.60;1.00
14031;DHT22;7090;49.436;8.490;2024-01-30T13:31:26;12.00;1.00
14031;DHT22;7090;49.436;8.490;2024-01-30T13:33:53;11.70;1.00
14031;DHT22;7090;49.436;8.490;2024-01-30T13:36:18;11.50;1.00
14031;DHT22;7090;49.436;8.490;2024-01-30T13:38:44;11.50;1.00
14031;DHT22;7090;49.436;8.490;2024-01-30T13:41:10;11.50;1.00
14031;DHT22;7090;49.436;8.490;2024-01-30T13:43:35;11.50;1.00
14031;DHT22;7090;49.436;8.490;2024-01-30T13:46:01;11.50;1.00
14031;DHT22;7090;49.436;8.490;2024-01-30T13:48:26;11.50;1.00
14031;DHT22;7090;49.436;8.490;2024-01-30T13:50:53;11.60;1.00
14031;DHT22;7090;49.436;8.490;2024-01-30T13:53:18;11.70;1.00
14031;DHT22;7090;49.436;8.490;2024-01-30T13:55:44;11.70;1.00
14031;DHT22;7090;49.436;8.490;2024-01-30T13:58:10;11.70;6.60
14031;DHT22;7090;49.436;8.490;2024-01-30T14:00:36;11.70;9.60
14031;DHT22;7090;49.436;8.490;2024-01-30T14:03:01;11.80;1.00
14031;DHT22;7090;49.436;8.490;2024-01-30T14:05:27;11.70;1.00
14031;DHT22;7090;49.436;8.490;2024-01-30T14:07:57;11.70;1.00
14031;DHT22;7090;49.436;8.490;2024-01-30T14:10:23;11.80;1.00
14031;DHT22;7090;49.436;8.490;2024-01-30T14:12:48;11.80;1.00
14031;DHT22;7090;49.436;8.490;2024-01-30T14:15:14;11.80;1.00
14031;DHT22;7090;49.436;8.490;2024-01-30T14:17:40;11.70;38.50
14031;DHT22;7090;49.436;8.490;2024-01-30T14:20:07;11.60;99.90
14031;DHT22;7090;49.436;8.490;2024-01-30T14:22:36;11.50;99.90
14031;DHT22;7090;49.436;8.490;2024-01-30T14:25:01;11.70;99.90
14031;DHT22;7090;49.436;8.490;2024-01-30T14:27:32;11.70;99.90
14031;DHT22;7090;49.436;8.490;2024-01-30T14:29:58;11.70;99.90
14031;DHT22;7090;49.436;8.490;2024-01-30T14:32:24;11.70;99.90
14031;DHT22;7090;49.436;8.490;2024-01-30T14:34:51;11.60;99.90
14031;DHT22;7090;49.436;8.490;2024-01-30T14:37:17;11.60;99.90
14031;DHT22;7090;49.436;8.490;2024-01-30T14:39:43;11.70;99.90
14031;DHT22;7090;49.436;8.490;2024-01-30T14:42:09;11.70;99.90
14031;DHT22;7090;49.436;8.490;2024-01-30T14:44:35;11.50;99.90
14031;DHT22;7090;49.436;8.490;2024-01-30T14:47:01;11.60;99.90
14031;DHT22;7090;49.436;8.490;2024-01-30T14:49:27;11.60;99.90
14031;DHT22;7090;49.436;8.490;2024-01-30T14:51:53;11.60;99.90
14031;DHT22;7090;49.436;8.490;2024-01-30T14:54:18;11.60;99.90
14031;DHT22;7090;49.436;8.490;2024-01-30T14:56:44;11.60;99.90
14031;DHT22;7090;49.436;8.490;2024-01-30T14:59:10;11.60;99.90
14031;DHT22;7090;49.436;8.490;2024-01-30T15:01:36;11.60;99.90
14031;DHT22;7090;49.436;8.490;2024-01-30T15:04:02;11.60;99.90
14031;DHT22;7090;49.436;8.490;2024-01-30T15:06:27;11.60;99.90
14031;DHT22;7090;49.436;8.490;2024-01-30T15:08:53;11.60;99.90
14031;DHT22;7090;49.436;8.490;2024-01-30T15:11:19;11.70;99.90
14031;DHT22;7090;49.436;8.490;2024-01-30T15:13:44;11.60;99.90
14031;DHT22;7090;49.436;8.490;2024-01-30T15:16:10;11.60;99.90
14031;DHT22;7090;49.436;8.490;2024-01-30T15:18:36;11.60;99.90
14031;DHT22;7090;49.436;8.490;2024-01-30T15:21:01;11.70;99.90
14031;DHT22;7090;49.436;8.490;2024-01-30T15:23:27;11.60;99.90
14031;DHT22;7090;49.436;8.490;2024-01-30T15:25:53;11.60;99.90
14031;DHT22;7090;49.436;8.490;2024-01-30T15:28:18;11.60;99.90
14031;DHT22;7090;49.436;8.490;2024-01-30T15:30:44;11.50;1.00
14031;DHT22;7090;49.436;8.490;2024-01-30T15:33:10;11.50;1.00
14031;DHT22;7090;49.436;8.490;2024-01-30T15:35:36;11.40;1.00
14031;DHT22;7090;49.436;8.490;2024-01-30T15:38:04;11.40;1.00
14031;DHT22;7090;49.436;8.490;2024-01-30T15:40:33;11.40;1.00
14031;DHT22;7090;49.436;8.490;2024-01-30T15:42:59;11.30;1.00
14031;DHT22;7090;49.436;8.490;2024-01-30T15:45:24;11.30;1.00
14031;DHT22;7090;49.436;8.490;2024-01-30T15:47:50;11.40;1.00
14031;DHT22;7090;49.436;8.490;2024-01-30T15:50:16;11.40;1.00
14031;DHT22;7090;49.436;8.490;2024-01-30T15:52:41;11.30;1.00
14031;DHT22;7090;49.436;8.490;2024-01-30T15:55:07;11.40;1.00
14031;DHT22;7090;49.436;8.490;2024-01-30T15:57:32;11.20;1.00
14031;DHT22;7090;49.436;8.490;2024-01-30T15:59:58;11.20;1.00
14031;DHT22;7090;49.436;8.490;2024-01-30T16:02:24;11.20;1.00
14031;DHT22;7090;49.436;8.490;2024-01-30T16:04:49;11.10;1.00